Time,TemperatureF,DewpointF,PressureIn,WindDirection,WindDirectionDegrees,WindSpeedMPH,WindSpeedGustMPH,Humidity,HourlyPrecipIn,Conditions,Clouds,dailyrainin,SoftwareType,DateUTC
2013-10-06 00:00:00,45.8,40.3,29.73,NNE,29,0.0,2.1,81,0.00,,OVC060,0.01,VWS V14.01,2013-10-06 05:00:00,
2013-10-06 00:10:00,45.5,40.0,29.73,NNE,29,0.0,0.0,81,0.00,,OVC060,0.00,VWS V14.01,2013-10-06 05:10:00,
2013-10-06 00:20:00,45.1,39.6,29.73,NNE,29,0.0,0.0,81,0.00,,OVC060,0.00,VWS V14.01,2013-10-06 05:20:00,
2013-10-06 00:25:00,44.9,39.4,29.72,NNE,29,0.0,0.0,81,0.00,,OVC060,0.00,VWS V14.01,2013-10-06 05:25:00,
2013-10-06 00:30:00,44.7,39.2,29.72,NNE,29,0.0,0.0,81,0.00,,OVC060,0.00,VWS V14.01,2013-10-06 05:30:00,
2013-10-06 00:35:00,44.6,39.1,29.73,NNE,29,0.0,0.0,81,0.00,,OVC060,0.00,VWS V14.01,2013-10-06 05:35:00,
2013-10-06 00:40:00,44.4,38.9,29.73,NNE,29,0.0,0.0,81,0.00,,OVC060,0.00,VWS V14.01,2013-10-06 05:40:00,
2013-10-06 00:50:00,44.2,38.4,29.72,NNE,29,0.0,0.0,80,0.00,,BKN060,0.00,VWS V14.01,2013-10-06 05:50:00,
2013-10-06 00:55:00,44.1,38.3,29.72,NNE,29,0.0,0.0,80,0.00,,BKN060,0.00,VWS V14.01,2013-10-06 05:55:00,
2013-10-06 01:00:00,44.0,38.2,29.72,NNE,29,0.0,0.0,80,0.00,,BKN060,0.00,VWS V14.01,2013-10-06 06:00:00,
2013-10-06 01:05:00,44.0,38.2,29.72,NNE,29,0.0,0.0,80,0.00,,CLR,0.00,VWS V14.01,2013-10-06 06:05:00,
2013-10-06 01:10:00,43.9,38.1,29.72,NNE,29,0.0,0.0,80,0.00,,CLR,0.00,VWS V14.01,2013-10-06 06:10:00,
2013-10-06 01:20:00,43.8,38.0,29.72,NNE,29,0.0,0.0,80,0.00,,CLR,0.00,VWS V14.01,2013-10-06 06:20:00,
2013-10-06 01:25:00,43.7,38.3,29.72,NNE,29,0.0,0.0,81,0.00,,SCT120,0.00,VWS V14.01,2013-10-06 06:25:00,
2013-10-06 01:30:00,43.6,38.2,29.72,NNE,29,0.0,0.0,81,0.00,,SCT120,0.00,VWS V14.01,2013-10-06 06:30:00,
2013-10-06 01:35:00,43.4,38.0,29.72,NNE,29,0.0,0.0,81,0.00,,SCT120,0.00,VWS V14.01,2013-10-06 06:35:00,
2013-10-06 01:40:00,43.4,38.0,29.72,NNE,30,0.0,0.0,81,0.00,,SCT120,0.00,VWS V14.01,2013-10-06 06:40:00,
2013-10-06 01:45:00,43.3,37.6,29.72,NNE,29,0.0,0.0,80,0.00,,SCT120,0.00,VWS V14.01,2013-10-06 06:45:00,
2013-10-06 01:50:00,43.3,37.6,29.72,NNE,29,1.0,2.1,80,0.00,,SCT120,0.00,VWS V14.01,2013-10-06 06:50:00,
2013-10-06 02:00:00,43.4,37.7,29.72,NNE,29,0.0,1.0,80,0.00,,SCT120,0.00,VWS V14.01,2013-10-06 07:00:00,
2013-10-06 02:05:00,43.4,37.7,29.72,NNE,29,0.0,0.0,80,0.00,,SCT120,0.00,VWS V14.01,2013-10-06 07:05:00,
2013-10-06 02:10:00,43.4,37.7,29.72,NNE,29,0.0,0.0,80,0.00,,SCT120,0.00,VWS V14.01,2013-10-06 07:10:00,
2013-10-06 02:20:00,43.6,37.8,29.72,NNE,29,0.0,0.0,80,0.00,,SCT120,0.00,VWS V14.01,2013-10-06 07:20:00,
2013-10-06 02:25:00,43.8,38.0,29.72,NNE,29,0.0,0.0,80,0.00,,BKN120,0.00,VWS V14.01,2013-10-06 07:25:00,
2013-10-06 02:35:00,44.0,38.2,29.72,NNE,29,0.0,0.0,80,0.00,,BKN120,0.00,VWS V14.01,2013-10-06 07:35:00,
2013-10-06 02:45:00,44.6,38.8,29.72,NNE,29,0.0,2.1,80,0.00,,OVC120,0.00,VWS V14.01,2013-10-06 07:45:00,
2013-10-06 02:55:00,45.0,39.2,29.71,NNE,29,0.0,1.0,80,0.00,,OVC120,0.00,VWS V14.01,2013-10-06 07:55:00,
2013-10-06 03:00:00,45.2,39.4,29.71,NNE,29,0.0,1.0,80,0.00,,OVC120,0.00,VWS V14.01,2013-10-06 08:00:00,
2013-10-06 03:05:00,45.3,39.5,29.71,NNE,29,0.0,1.0,80,0.00,,OVC055,0.00,VWS V14.01,2013-10-06 08:05:00,
2013-10-06 03:10:00,45.4,39.6,29.71,NNE,29,0.0,0.0,80,0.00,,OVC055,0.00,VWS V14.01,2013-10-06 08:10:00,
2013-10-06 03:15:00,45.5,39.7,29.71,NNE,29,0.0,2.1,80,0.00,,OVC055,0.00,VWS V14.01,2013-10-06 08:15:00,
2013-10-06 03:25:00,45.6,39.8,29.71,NNE,29,0.0,0.0,80,0.00,,OVC028,0.00,VWS V14.01,2013-10-06 08:25:00,
2013-10-06 03:30:00,45.7,39.9,29.71,WNW,299,0.0,2.1,80,0.00,,OVC028,0.00,VWS V14.01,2013-10-06 08:30:00,
2013-10-06 03:40:00,45.9,40.1,29.70,WNW,299,0.0,1.0,80,0.00,,OVC028,0.00,VWS V14.01,2013-10-06 08:40:00,
2013-10-06 03:50:00,46.2,40.4,29.70,WNW,299,0.0,1.0,80,0.00,,RA,0.00,VWS V14.01,2013-10-06 08:50:00,
2013-10-06 03:55:00,46.3,40.5,29.70,WNW,289,1.0,2.1,80,0.00,,RA,0.00,VWS V14.01,2013-10-06 08:55:00,
2013-10-06 04:00:00,46.5,40.7,29.70,WNW,289,0.0,1.0,80,0.00,,RA,0.00,VWS V14.01,2013-10-06 09:00:00,
2013-10-06 04:10:00,46.7,40.9,29.70,WNW,289,0.0,1.0,80,0.00,,OVC008,0.00,VWS V14.01,2013-10-06 09:10:00,
2013-10-06 04:15:00,46.8,41.0,29.70,WNW,289,0.0,2.1,80,0.00,,OVC008,0.00,VWS V14.01,2013-10-06 09:15:00,
2013-10-06 04:25:00,47.0,41.2,29.69,WNW,289,0.0,4.2,80,0.00,,OVC006,0.00,VWS V14.01,2013-10-06 09:25:00,
2013-10-06 04:30:00,47.0,41.2,29.69,WNW,289,0.0,0.0,80,0.00,,OVC006,0.00,VWS V14.01,2013-10-06 09:30:00,
2013-10-06 04:35:00,47.1,41.3,29.69,WNW,289,0.0,0.0,80,0.00,,OVC006,0.00,VWS V14.01,2013-10-06 09:35:00,
2013-10-06 04:40:00,47.2,41.4,29.69,WNW,289,0.0,0.0,80,0.00,,OVC047,0.00,VWS V14.01,2013-10-06 09:40:00,
2013-10-06 04:45:00,47.3,41.5,29.69,WNW,289,0.0,0.0,80,0.00,,OVC047,0.00,VWS V14.01,2013-10-06 09:45:00,
2013-10-06 04:50:00,47.4,41.5,29.69,WNW,289,0.0,2.1,80,0.01,,OVC047,0.01,VWS V14.01,2013-10-06 09:50:00,
2013-10-06 04:55:00,47.5,41.7,29.69,WNW,289,0.0,0.0,80,0.01,,OVC047,0.01,VWS V14.01,2013-10-06 09:55:00,
2013-10-06 05:05:00,47.8,41.9,29.69,WNW,289,0.0,1.0,80,0.01,,OVC043,0.01,VWS V14.01,2013-10-06 10:05:00,
2013-10-06 05:15:00,48.1,42.2,29.69,WNW,294,0.0,2.1,80,0.01,,OVC043,0.01,VWS V14.01,2013-10-06 10:15:00,
2013-10-06 05:25:00,48.2,42.3,29.69,West,267,1.0,4.2,80,0.01,,RA,0.01,VWS V14.01,2013-10-06 10:25:00,
2013-10-06 05:30:00,48.3,42.4,29.69,West,267,0.0,2.1,80,0.01,,RA,0.01,VWS V14.01,2013-10-06 10:30:00,
2013-10-06 05:35:00,48.3,42.4,29.69,West,267,0.0,1.0,80,0.01,,RA,0.01,VWS V14.01,2013-10-06 10:35:00,
2013-10-06 05:45:00,48.4,42.5,29.68,West,267,0.0,4.2,80,0.01,,OVC025,0.01,VWS V14.01,2013-10-06 10:45:00,
2013-10-06 05:50:00,48.5,42.6,29.69,West,267,0.0,2.1,80,0.01,,OVC025,0.01,VWS V14.01,2013-10-06 10:50:00,
2013-10-06 05:55:00,48.5,42.6,29.69,West,269,0.0,2.1,80,0.00,,OVC025,0.01,VWS V14.01,2013-10-06 10:55:00,
2013-10-06 06:00:00,48.5,42.6,29.69,NNE,24,0.0,3.1,80,0.00,,OVC025,0.01,VWS V14.01,2013-10-06 11:00:00,
2013-10-06 06:05:00,48.6,42.7,29.69,NNE,24,0.0,0.0,80,0.00,,OVC009,0.01,VWS V14.01,2013-10-06 11:05:00,
2013-10-06 06:10:00,48.6,42.7,29.69,NW,315,3.0,3.1,80,0.00,,OVC009,0.01,VWS V14.01,2013-10-06 11:10:00,
2013-10-06 06:20:00,48.7,42.8,29.69,WNW,289,0.0,2.1,80,0.00,,OVC009,0.01,VWS V14.01,2013-10-06 11:20:00,
2013-10-06 06:25:00,48.8,42.6,29.69,West,280,0.0,3.1,79,0.00,,OVC003,0.01,VWS V14.01,2013-10-06 11:25:00,
2013-10-06 06:30:00,48.8,42.6,29.70,NNE,15,0.0,4.2,79,0.00,,OVC003,0.01,VWS V14.01,2013-10-06 11:30:00,
2013-10-06 06:35:00,48.9,42.7,29.69,NNE,15,0.0,2.1,79,0.00,,OVC003,0.01,VWS V14.01,2013-10-06 11:35:00,
2013-10-06 06:40:00,49.0,42.8,29.70,WNW,290,0.0,4.2,79,0.00,,RA,0.01,VWS V14.01,2013-10-06 11:40:00,
2013-10-06 06:50:00,49.2,43.0,29.70,NNW,328,0.0,4.2,79,0.00,,RA,0.01,VWS V14.01,2013-10-06 11:50:00,
2013-10-06 06:55:00,49.3,43.1,29.69,NW,310,1.0,5.2,79,0.00,,RA,0.01,VWS V14.01,2013-10-06 11:55:00,
2013-10-06 07:00:00,49.4,43.2,29.70,North,355,2.0,3.1,79,0.00,,RA,0.01,VWS V14.01,2013-10-06 12:00:00,
2013-10-06 07:05:00,49.5,43.3,29.70,NW,323,0.0,5.2,79,0.00,,,0.01,VWS V14.01,2013-10-06 12:05:00,
2013-10-06 07:10:00,49.5,43.3,29.70,WNW,292,0.0,5.2,79,0.01,,,0.02,VWS V14.01,2013-10-06 12:10:00,
2013-10-06 07:15:00,49.5,43.3,29.70,NNE,17,0.0,5.2,79,0.01,,,0.02,VWS V14.01,2013-10-06 12:15:00,
2013-10-06 07:25:00,49.5,43.3,29.70,NNE,19,1.0,2.1,79,0.01,,,0.02,VWS V14.01,2013-10-06 12:25:00,
2013-10-06 07:30:00,49.4,43.5,29.70,NW,315,5.0,10.5,80,0.01,,,0.02,VWS V14.01,2013-10-06 12:30:00,
2013-10-06 07:40:00,49.1,42.9,29.71,NNW,342,5.0,10.5,79,0.01,,,0.02,VWS V14.01,2013-10-06 12:40:00,
2013-10-06 07:45:00,49.0,42.8,29.71,North,355,8.0,9.4,79,0.02,,OVC005,0.03,VWS V14.01,2013-10-06 12:45:00,
2013-10-06 07:50:00,48.8,42.6,29.71,NNE,17,0.0,8.4,79,0.02,,OVC005,0.03,VWS V14.01,2013-10-06 12:50:00,
2013-10-06 07:55:00,48.8,42.6,29.71,NNW,347,5.0,10.5,79,0.02,,OVC005,0.03,VWS V14.01,2013-10-06 12:55:00,
2013-10-06 08:05:00,48.8,42.6,29.71,North,355,4.0,10.5,79,0.02,,OVC005,0.03,VWS V14.01,2013-10-06 13:05:00,
2013-10-06 08:10:00,48.8,42.6,29.71,North,5,9.0,11.5,79,0.02,,OVC005,0.03,VWS V14.01,2013-10-06 13:10:00,
2013-10-06 08:20:00,48.9,42.7,29.72,North,355,5.0,10.5,79,0.01,,OVC005,0.03,VWS V14.01,2013-10-06 13:20:00,
2013-10-06 08:25:00,48.9,42.7,29.72,NE,50,5.0,9.4,79,0.01,,,0.03,VWS V14.01,2013-10-06 13:25:00,
2013-10-06 08:35:00,49.1,42.9,29.72,North,360,2.0,4.2,79,0.01,,,0.03,VWS V14.01,2013-10-06 13:35:00,
2013-10-06 08:40:00,49.1,42.9,29.72,NNE,29,3.0,9.4,79,0.01,,,0.03,VWS V14.01,2013-10-06 13:40:00,
2013-10-06 08:45:00,49.1,42.9,29.72,NE,36,6.0,9.4,79,0.01,,,0.03,VWS V14.01,2013-10-06 13:45:00,
2013-10-06 08:50:00,49.0,42.8,29.73,NNE,27,6.0,11.5,79,0.01,,,0.04,VWS V14.01,2013-10-06 13:50:00,
2013-10-06 08:55:00,48.9,43.0,29.73,NNE,18,3.0,10.5,80,0.01,,,0.04,VWS V14.01,2013-10-06 13:55:00,
2013-10-06 09:05:00,48.7,42.8,29.73,North,355,4.0,8.4,80,0.01,,,0.04,VWS V14.01,2013-10-06 14:05:00,
2013-10-06 09:10:00,48.6,42.7,29.73,North,360,8.0,10.5,80,0.01,,,0.04,VWS V14.01,2013-10-06 14:10:00,
2013-10-06 09:15:00,48.5,42.6,29.73,NNE,15,4.0,14.7,80,0.01,,,0.04,VWS V14.01,2013-10-06 14:15:00,
2013-10-06 09:25:00,48.3,42.4,29.73,NNE,12,8.0,11.5,80,0.02,,OVC005,0.05,VWS V14.01,2013-10-06 14:25:00,
2013-10-06 09:30:00,48.3,42.4,29.73,NE,40,1.0,9.4,80,0.02,,OVC005,0.05,VWS V14.01,2013-10-06 14:30:00,
2013-10-06 09:35:00,48.2,42.3,29.73,NNE,25,5.0,10.5,80,0.02,,OVC005,0.05,VWS V14.01,2013-10-06 14:35:00,
2013-10-06 09:40:00,48.1,42.2,29.73,North,5,5.0,13.6,80,0.02,,OVC005,0.05,VWS V14.01,2013-10-06 14:40:00,
2013-10-06 09:45:00,48.2,42.3,29.73,North,355,3.0,11.5,80,0.02,,OVC005,0.05,VWS V14.01,2013-10-06 14:45:00,
2013-10-06 09:50:00,48.1,42.2,29.74,North,5,2.0,10.5,80,0.02,,OVC005,0.05,VWS V14.01,2013-10-06 14:50:00,
2013-10-06 09:55:00,48.0,42.1,29.74,North,355,3.0,8.4,80,0.01,,OVC005,0.05,VWS V14.01,2013-10-06 14:55:00,
2013-10-06 10:00:00,48.0,42.1,29.74,NNE,26,1.0,8.4,80,0.01,,OVC005,0.05,VWS V14.01,2013-10-06 15:00:00,
2013-10-06 10:10:00,48.1,42.2,29.74,NNW,331,9.0,10.5,80,0.01,,OVC005,0.05,VWS V14.01,2013-10-06 15:10:00,
2013-10-06 10:15:00,48.1,42.2,29.74,North,355,4.0,14.7,80,0.01,,OVC005,0.05,VWS V14.01,2013-10-06 15:15:00,
2013-10-06 10:25:00,48.3,42.4,29.74,NNW,338,4.0,11.5,80,0.00,,-RA,0.05,VWS V14.01,2013-10-06 15:25:00,
2013-10-06 10:30:00,48.5,42.6,29.74,ENE,74,2.0,6.3,80,0.00,,-RA,0.05,VWS V14.01,2013-10-06 15:30:00,
2013-10-06 10:40:00,48.7,42.8,29.74,West,279,3.0,10.5,80,0.00,,-RA,0.05,VWS V14.01,2013-10-06 15:40:00,
2013-10-06 10:45:00,48.7,42.8,29.74,NNW,328,2.0,6.3,80,0.00,,RA,0.05,VWS V14.01,2013-10-06 15:45:00,
2013-10-06 10:55:00,48.7,42.8,29.74,WNW,302,2.0,5.2,80,0.01,,RA,0.06,VWS V14.01,2013-10-06 15:55:00,
2013-10-06 11:00:00,48.7,42.8,29.75,NNW,336,0.0,5.2,80,0.01,,RA,0.06,VWS V14.01,2013-10-06 16:00:00,
2013-10-06 11:05:00,48.6,42.7,29.75,ENE,66,0.0,8.4,80,0.01,,-RA,0.06,VWS V14.01,2013-10-06 16:05:00,
2013-10-06 11:10:00,48.6,42.7,29.74,NNW,343,0.0,3.1,80,0.02,,-RA,0.07,VWS V14.01,2013-10-06 16:10:00,
2013-10-06 11:20:00,48.7,42.8,29.74,NNE,24,2.0,3.1,80,0.02,,-RA,0.07,VWS V14.01,2013-10-06 16:20:00,
2013-10-06 11:25:00,48.8,42.9,29.75,North,351,3.0,6.3,80,0.02,,-RA,0.07,VWS V14.01,2013-10-06 16:25:00,
2013-10-06 11:30:00,48.7,42.8,29.75,NNE,22,0.0,9.4,80,0.03,,-RA,0.08,VWS V14.01,2013-10-06 16:30:00,
2013-10-06 11:40:00,48.7,42.8,29.75,NW,319,2.0,8.4,80,0.04,,-RA,0.09,VWS V14.01,2013-10-06 16:40:00,
2013-10-06 11:45:00,48.8,42.9,29.75,NW,317,2.0,9.4,80,0.05,,-RA,0.10,VWS V14.01,2013-10-06 16:45:00,
2013-10-06 11:55:00,48.9,43.0,29.75,ENE,70,3.0,9.4,80,0.05,,-RA,0.11,VWS V14.01,2013-10-06 16:55:00,
2013-10-06 12:00:00,49.0,43.1,29.75,NNW,348,3.0,4.2,80,0.05,,-RA,0.11,VWS V14.01,2013-10-06 17:00:00,
2013-10-06 12:05:00,49.1,43.2,29.76,WSW,245,2.0,12.6,80,0.05,,-RA,0.11,VWS V14.01,2013-10-06 17:05:00,
2013-10-06 12:15:00,48.9,43.0,29.76,NW,305,4.0,7.3,80,0.05,,-RA,0.12,VWS V14.01,2013-10-06 17:15:00,
2013-10-06 12:20:00,48.8,42.9,29.76,WNW,303,1.0,11.5,80,0.06,,-RA,0.13,VWS V14.01,2013-10-06 17:20:00,
2013-10-06 12:25:00,48.8,42.9,29.76,WNW,296,0.0,6.3,80,0.07,,,0.14,VWS V14.01,2013-10-06 17:25:00,
2013-10-06 12:30:00,48.8,42.9,29.76,NNW,347,1.0,6.3,80,0.07,,,0.14,VWS V14.01,2013-10-06 17:30:00,
2013-10-06 12:35:00,48.8,42.9,29.76,NNW,339,2.0,8.4,80,0.07,,,0.15,VWS V14.01,2013-10-06 17:35:00,
2013-10-06 12:40:00,48.7,42.8,29.76,NNW,342,1.0,5.2,80,0.06,,,0.15,VWS V14.01,2013-10-06 17:40:00,
2013-10-06 12:45:00,48.7,42.8,29.77,NW,321,0.0,6.3,80,0.06,,RA,0.15,VWS V14.01,2013-10-06 17:45:00,
2013-10-06 12:55:00,48.5,42.6,29.77,SW,236,1.0,6.3,80,0.06,,RA,0.16,VWS V14.01,2013-10-06 17:55:00,
2013-10-06 13:00:00,48.5,42.6,29.77,WNW,286,0.0,8.4,80,0.06,,RA,0.17,VWS V14.01,2013-10-06 18:00:00,
2013-10-06 13:05:00,48.3,42.4,29.77,NW,313,0.0,6.3,80,0.07,,RA,0.18,VWS V14.01,2013-10-06 18:05:00,
2013-10-06 13:15:00,48.1,42.2,29.77,NW,313,1.0,5.2,80,0.07,,RA,0.19,VWS V14.01,2013-10-06 18:15:00,
2013-10-06 13:20:00,48.0,42.1,29.77,NNW,340,1.0,9.4,80,0.08,,-RA,0.20,VWS V14.01,2013-10-06 18:20:00,
2013-10-06 13:25:00,48.0,42.1,29.76,WNW,291,12.0,12.6,80,0.07,,-RA,0.20,VWS V14.01,2013-10-06 18:25:00,
2013-10-06 13:35:00,48.0,42.1,29.76,NNE,23,3.0,8.4,80,0.07,,-RA,0.21,VWS V14.01,2013-10-06 18:35:00,
2013-10-06 13:40:00,48.0,42.1,29.76,ENE,65,2.0,7.3,80,0.06,,-RA,0.21,VWS V14.01,2013-10-06 18:40:00,
2013-10-06 13:45:00,47.9,42.0,29.77,North,355,3.0,9.4,80,0.06,,,0.21,VWS V14.01,2013-10-06 18:45:00,
2013-10-06 13:50:00,47.9,42.0,29.77,NE,46,1.0,10.5,80,0.07,,,0.22,VWS V14.01,2013-10-06 18:50:00,
2013-10-06 14:05:00,47.9,42.0,29.77,WNW,302,1.0,5.2,80,0.06,,,0.23,VWS V14.01,2013-10-06 19:05:00,
2013-10-06 14:10:00,47.9,42.0,29.77,WNW,296,2.0,3.1,80,0.05,,,0.23,VWS V14.01,2013-10-06 19:10:00,
2013-10-06 14:15:00,47.9,42.0,29.77,NNE,14,1.0,5.2,80,0.04,,-RA,0.23,VWS V14.01,2013-10-06 19:15:00,
2013-10-06 14:25:00,47.9,42.0,29.77,NNW,348,2.0,9.4,80,0.04,,-RA,0.24,VWS V14.01,2013-10-06 19:25:00,
2013-10-06 14:30:00,47.8,41.9,29.77,North,355,0.0,7.3,80,0.05,,-RA,0.25,VWS V14.01,2013-10-06 19:30:00,
2013-10-06 14:40:00,47.9,42.0,29.77,WNW,299,1.0,6.3,80,0.06,,-RA,0.27,VWS V14.01,2013-10-06 19:40:00,
2013-10-06 14:50:00,48.2,42.3,29.78,NW,323,2.0,6.3,80,0.06,,-RA,0.27,VWS V14.01,2013-10-06 19:50:00,
2013-10-06 14:55:00,48.3,42.4,29.78,North,9,0.0,9.4,80,0.05,,-RA,0.27,VWS V14.01,2013-10-06 19:55:00,
2013-10-06 15:00:00,48.3,42.4,29.78,WNW,288,0.0,4.2,80,0.05,,-RA,0.27,VWS V14.01,2013-10-06 20:00:00,
2013-10-06 15:05:00,48.5,42.6,29.78,WNW,288,2.0,3.1,80,0.05,,OVC007,0.27,VWS V14.01,2013-10-06 20:05:00,
2013-10-06 15:10:00,48.4,42.5,29.78,NW,304,0.0,7.3,80,0.04,,OVC007,0.27,VWS V14.01,2013-10-06 20:10:00,
2013-10-06 15:15:00,48.4,42.5,29.78,WNW,294,0.0,3.1,80,0.05,,OVC007,0.28,VWS V14.01,2013-10-06 20:15:00,
2013-10-06 15:20:00,48.3,42.4,29.78,NW,325,4.0,4.2,80,0.05,,OVC007,0.28,VWS V14.01,2013-10-06 20:20:00,
2013-10-06 15:25:00,48.2,42.3,29.78,NW,309,0.0,5.2,80,0.05,,OVC007,0.28,VWS V14.01,2013-10-06 20:25:00,
2013-10-06 15:30:00,48.2,42.3,29.78,NNW,333,0.0,8.4,80,0.04,,OVC007,0.28,VWS V14.01,2013-10-06 20:30:00,
2013-10-06 15:40:00,48.3,42.4,29.78,NNW,331,1.0,4.2,80,0.01,,OVC007,0.28,VWS V14.01,2013-10-06 20:40:00,
2013-10-06 15:45:00,48.3,42.4,29.78,North,355,0.0,4.2,80,0.01,,OVC009,0.28,VWS V14.01,2013-10-06 20:45:00,
2013-10-06 15:50:00,48.4,42.5,29.78,NW,326,0.0,8.4,80,0.01,,OVC009,0.28,VWS V14.01,2013-10-06 20:50:00,
2013-10-06 16:00:00,48.7,42.8,29.78,NW,305,1.0,11.5,80,0.01,,OVC009,0.28,VWS V14.01,2013-10-06 21:00:00,
2013-10-06 16:05:00,48.8,42.9,29.78,NNW,348,2.0,10.5,80,0.01,,OVC013,0.28,VWS V14.01,2013-10-06 21:05:00,
2013-10-06 16:10:00,49.1,43.2,29.78,ESE,115,1.0,5.2,80,0.01,,OVC013,0.28,VWS V14.01,2013-10-06 21:10:00,
2013-10-06 16:15:00,49.4,43.5,29.78,NNW,341,1.0,6.3,80,0.01,,OVC013,0.28,VWS V14.01,2013-10-06 21:15:00,
2013-10-06 16:20:00,49.7,43.8,29.78,West,275,4.0,4.2,80,0.00,,OVC013,0.28,VWS V14.01,2013-10-06 21:20:00,
2013-10-06 16:25:00,50.0,44.1,29.79,NW,309,4.0,5.2,80,0.00,,OVC023,0.28,VWS V14.01,2013-10-06 21:25:00,
2013-10-06 16:35:00,50.6,44.7,29.79,WNW,290,4.0,7.3,80,0.00,,OVC023,0.28,VWS V14.01,2013-10-06 21:35:00,
2013-10-06 16:45:00,51.4,45.5,29.79,North,5,2.0,9.4,80,0.00,,BKN085,0.28,VWS V14.01,2013-10-06 21:45:00,
2013-10-06 16:50:00,52.4,46.4,29.79,NNW,337,4.0,7.3,80,0.00,,BKN085,0.28,VWS V14.01,2013-10-06 21:50:00,
2013-10-06 17:00:00,53.2,47.5,29.79,NNW,348,6.0,11.5,81,0.00,,SCT028,0.28,VWS V14.01,2013-10-06 22:00:00,
2013-10-06 17:10:00,53.8,48.4,29.80,North,5,3.0,9.4,82,0.00,,SCT028,0.28,VWS V14.01,2013-10-06 22:10:00,
2013-10-06 17:15:00,54.1,48.7,29.80,NNE,20,4.0,5.2,82,0.00,,SCT028,0.28,VWS V14.01,2013-10-06 22:15:00,
2013-10-06 17:20:00,54.5,49.1,29.80,North,9,0.0,4.2,82,0.00,,CLR,0.28,VWS V14.01,2013-10-06 22:20:00,
2013-10-06 17:25:00,54.7,49.3,29.81,East,87,1.0,4.2,82,0.00,,CLR,0.28,VWS V14.01,2013-10-06 22:25:00,
2013-10-06 17:30:00,55.0,49.9,29.81,NW,306,1.0,5.2,83,0.00,,CLR,0.28,VWS V14.01,2013-10-06 22:30:00,
2013-10-06 17:35:00,55.3,49.9,29.81,NW,306,3.0,5.2,82,0.00,,CLR,0.28,VWS V14.01,2013-10-06 22:35:00,
2013-10-06 17:40:00,55.5,50.1,29.80,NNW,338,0.0,3.1,82,0.00,,CLR,0.28,VWS V14.01,2013-10-06 22:40:00,
2013-10-06 17:45:00,55.7,50.3,29.81,NW,304,0.0,2.1,82,0.00,,CLR,0.28,VWS V14.01,2013-10-06 22:45:00,
2013-10-06 17:50:00,55.8,50.4,29.81,NW,304,0.0,1.0,82,0.00,,CLR,0.28,VWS V14.01,2013-10-06 22:50:00,
2013-10-06 17:55:00,56.0,50.6,29.81,WSW,244,0.0,2.1,82,0.00,,CLR,0.28,VWS V14.01,2013-10-06 22:55:00,
2013-10-06 18:05:00,56.1,50.4,29.82,WNW,294,0.0,4.2,81,0.00,,CLR,0.28,VWS V14.01,2013-10-06 23:05:00,
2013-10-06 18:15:00,55.7,49.3,29.82,NNW,342,0.0,5.2,79,0.00,,CLR,0.28,VWS V14.01,2013-10-06 23:15:00,
2013-10-06 18:20:00,55.1,48.7,29.82,West,279,1.0,4.2,79,0.00,,CLR,0.28,VWS V14.01,2013-10-06 23:20:00,
2013-10-06 18:25:00,54.6,48.6,29.82,NNW,341,2.0,2.1,80,0.00,,CLR,0.28,VWS V14.01,2013-10-06 23:25:00,
2013-10-06 18:30:00,53.9,47.9,29.83,NW,317,0.0,4.2,80,0.00,,CLR,0.28,VWS V14.01,2013-10-06 23:30:00,
2013-10-06 18:35:00,53.2,47.2,29.83,West,279,0.0,4.2,80,0.00,,CLR,0.28,VWS V14.01,2013-10-06 23:35:00,
2013-10-06 18:45:00,52.2,46.2,29.83,West,275,0.0,1.0,80,0.00,,CLR,0.28,VWS V14.01,2013-10-06 23:45:00,
2013-10-06 19:45:00,48.1,43.2,29.85,WNW,295,0.0,0.0,83,0.00,,CLR,0.28,VWS V14.01,2013-10-07 00:45:00,
2013-10-06 19:50:00,47.9,43.0,29.85,NW,304,2.0,6.3,83,0.00,,CLR,0.28,VWS V14.01,2013-10-07 00:50:00,
2013-10-06 19:55:00,47.9,43.0,29.85,NW,318,0.0,4.2,83,0.00,,CLR,0.28,VWS V14.01,2013-10-07 00:55:00,
2013-10-06 20:00:00,47.8,42.6,29.85,WNW,285,0.0,3.1,82,0.00,,CLR,0.28,VWS V14.01,2013-10-07 01:00:00,
2013-10-06 20:10:00,47.7,42.5,29.85,West,271,6.0,6.3,82,0.00,,CLR,0.28,VWS V14.01,2013-10-07 01:10:00,
2013-10-06 20:20:00,47.6,42.4,29.86,West,281,0.0,1.0,82,0.00,,CLR,0.28,VWS V14.01,2013-10-07 01:20:00,
2013-10-06 20:25:00,47.5,42.3,29.86,NW,309,0.0,4.2,82,0.00,,CLR,0.28,VWS V14.01,2013-10-07 01:25:00,
2013-10-06 20:30:00,47.4,42.2,29.86,WSW,252,0.0,1.0,82,0.00,,CLR,0.28,VWS V14.01,2013-10-07 01:30:00,
2013-10-06 21:10:00,46.6,41.7,29.86,NW,316,0.0,1.0,83,0.00,,CLR,0.28,VWS V14.01,2013-10-07 02:10:00,
2013-10-06 21:15:00,46.4,41.5,29.87,NW,316,0.0,1.0,83,0.00,,CLR,0.28,VWS V14.01,2013-10-07 02:15:00,
2013-10-06 21:20:00,46.1,41.2,29.87,NW,316,0.0,1.0,83,0.00,,CLR,0.28,VWS V14.01,2013-10-07 02:20:00,
2013-10-06 21:30:00,45.7,40.8,29.87,NW,316,0.0,1.0,83,0.00,,CLR,0.28,VWS V14.01,2013-10-07 02:30:00,
2013-10-06 21:35:00,45.6,40.7,29.87,NW,316,0.0,1.0,83,0.00,,CLR,0.28,VWS V14.01,2013-10-07 02:35:00,
2013-10-06 21:40:00,45.5,40.7,29.87,NW,316,0.0,1.0,83,0.00,,CLR,0.28,VWS V14.01,2013-10-07 02:40:00,
2013-10-06 21:45:00,45.4,40.5,29.88,NW,316,0.0,1.0,83,0.00,,CLR,0.28,VWS V14.01,2013-10-07 02:45:00,
2013-10-06 21:55:00,45.1,40.2,29.88,NW,316,0.0,1.0,83,0.00,,CLR,0.28,VWS V14.01,2013-10-07 02:55:00,
2013-10-06 22:00:00,44.9,40.1,29.88,NW,316,0.0,1.0,83,0.00,,CLR,0.28,VWS V14.01,2013-10-07 03:00:00,
2013-10-06 22:05:00,44.6,39.8,29.88,NW,316,0.0,0.0,83,0.00,,CLR,0.28,VWS V14.01,2013-10-07 03:05:00,
2013-10-06 22:15:00,44.2,39.4,29.88,NW,316,0.0,2.1,83,0.00,,CLR,0.28,VWS V14.01,2013-10-07 03:15:00,
2013-10-06 22:25:00,43.9,39.1,29.88,NW,315,0.0,2.1,83,0.00,,CLR,0.28,VWS V14.01,2013-10-07 03:25:00,
2013-10-06 22:30:00,43.6,38.8,29.88,WSW,240,1.0,3.1,83,0.00,,CLR,0.28,VWS V14.01,2013-10-07 03:30:00,
2013-10-06 22:40:00,43.2,38.4,29.88,SW,228,4.0,4.2,83,0.00,,CLR,0.28,VWS V14.01,2013-10-07 03:40:00,
2013-10-06 22:45:00,43.1,38.3,29.88,WSW,254,1.0,4.2,83,0.00,,CLR,0.28,VWS V14.01,2013-10-07 03:45:00,
2013-10-06 22:50:00,43.0,38.2,29.88,WSW,255,1.0,2.1,83,0.00,,CLR,0.28,VWS V14.01,2013-10-07 03:50:00,
2013-10-06 22:55:00,42.9,37.8,29.88,WSW,251,1.0,4.2,82,0.00,,CLR,0.28,VWS V14.01,2013-10-07 03:55:00,
2013-10-06 23:00:00,42.8,37.7,29.88,WSW,238,0.0,2.1,82,0.00,,CLR,0.28,VWS V14.01,2013-10-07 04:00:00,
2013-10-06 23:05:00,42.7,37.6,29.88,WSW,246,0.0,1.0,82,0.00,,CLR,0.28,VWS V14.01,2013-10-07 04:05:00,
2013-10-06 23:10:00,42.9,37.8,29.88,WSW,242,0.0,3.1,82,0.00,,CLR,0.28,VWS V14.01,2013-10-07 04:10:00,
2013-10-06 23:20:00,43.1,38.0,29.88,WSW,241,0.0,3.1,82,0.00,,CLR,0.28,VWS V14.01,2013-10-07 04:20:00,
2013-10-06 23:25:00,43.1,38.0,29.88,WSW,243,1.0,2.1,82,0.00,,CLR,0.28,VWS V14.01,2013-10-07 04:25:00,
2013-10-06 23:30:00,43.0,38.2,29.88,WSW,243,0.0,1.0,83,0.00,,CLR,0.28,VWS V14.01,2013-10-07 04:30:00,
2013-10-06 23:35:00,42.9,37.8,29.88,WSW,244,2.0,3.1,82,0.00,,CLR,0.28,VWS V14.01,2013-10-07 04:35:00,
2013-10-06 23:40:00,42.7,37.6,29.88,WSW,242,3.0,3.1,82,0.00,,CLR,0.28,VWS V14.01,2013-10-07 04:40:00,
2013-10-06 23:45:00,42.6,37.5,29.88,SW,221,3.0,4.2,82,0.00,,CLR,0.28,VWS V14.01,2013-10-07 04:45:00,
2013-10-06 23:50:00,42.6,37.5,29.88,WSW,242,2.0,6.3,82,0.00,,CLR,0.28,VWS V14.01,2013-10-07 04:50:00,
2013-10-06 23:55:00,42.7,37.6,29.88,WSW,250,1.0,4.2,82,0.00,,CLR,0.28,VWS V14.01,2013-10-07 04:55:00,